Time;durP1;ratioP1;P1;durP2;ratioP2;P2;SDS_P1;SDS_P2;PMS_P1;PMS_P2;Temp;Humidity;BMP_temperature;BMP_pressure;BME280_temperature;BME280_humidity;BME280_pressure;Samples;Min_cycle;Max_cycle;Signal;HPM_P1;HPM_P2
2022/06/06 00:00:19;;;;;;;6.53;5.93;;;20.90;99.90;;;;;;1043017;28;20078;-69
2022/06/06 00:00:50;;;;;;;8.00;6.10;;;20.90;99.90;;;;;;1042896;28;20013;-68
2022/06/06 00:01:22;;;;;;;5.95;5.05;;;20.90;99.90;;;;;;1043441;28;20308;-69
2022/06/06 00:01:53;;;;;;;6.35;5.75;;;20.90;99.90;;;;;;1043076;28;20013;-68
2022/06/06 00:02:26;;;;;;;6.07;5.32;;;20.90;99.90;;;;;;1043162;28;20012;-67
2022/06/06 00:02:57;;;;;;;7.63;6.88;;;20.90;99.90;;;;;;1042613;28;20013;-68
2022/06/06 00:03:30;;;;;;;6.07;5.27;;;20.90;99.90;;;;;;1042907;28;20017;-69
2022/06/06 00:04:00;;;;;;;6.43;5.60;;;20.90;99.90;;;;;;1038340;28;20026;-69
2022/06/06 00:04:33;;;;;;;6.00;5.40;;;20.90;99.90;;;;;;1039064;28;20010;-69
2022/06/06 00:05:05;;;;;;;6.88;6.18;;;20.90;99.90;;;;;;1042851;28;20521;-67
2022/06/06 00:05:36;;;;;;;6.15;5.55;;;20.90;99.90;;;;;;1042938;28;20017;-68
2022/06/06 00:06:19;;;;;;;6.45;5.75;;;20.90;99.90;;;;;;1042839;28;20108;-68
2022/06/06 00:06:55;;;;;;;7.10;6.40;;;20.90;99.90;;;;;;1043301;28;20017;-69
2022/06/06 00:07:26;;;;;;;6.03;5.43;;;20.90;99.90;;;;;;1041224;28;20451;-68
2022/06/06 00:07:58;;;;;;;5.87;5.37;;;20.80;99.90;;;;;;1038910;28;20527;-68
2022/06/06 00:08:28;;;;;;;6.93;6.18;;;20.80;99.90;;;;;;1038338;28;20563;-68
2022/06/06 00:08:59;;;;;;;5.67;5.17;;;20.90;99.90;;;;;;1038951;28;20710;-68
2022/06/06 00:09:30;;;;;;;6.60;5.10;;;20.90;99.90;;;;;;1038691;28;20579;-69
2022/06/06 00:10:00;;;;;;;6.67;5.60;;;20.80;99.90;;;;;;1043024;28;20021;-68
2022/06/06 00:10:31;;;;;;;6.40;5.77;;;20.80;99.90;;;;;;1042339;28;20055;-68
2022/06/06 00:11:04;;;;;;;7.03;5.60;;;20.90;99.90;;;;;;1043155;28;20052;-68
2022/06/06 00:11:36;;;;;;;7.00;6.30;;;20.80;99.90;;;;;;1038867;28;20013;-68
2022/06/06 00:12:07;;;;;;;5.72;5.20;;;20.90;99.90;;;;;;1039263;28;20024;-68
2022/06/06 00:12:38;;;;;;;7.60;6.70;;;20.90;99.90;;;;;;1040437;28;20022;-68
2022/06/06 00:13:11;;;;;;;6.05;5.40;;;20.90;99.90;;;;;;1042861;28;20039;-68
2022/06/06 00:13:45;;;;;;;5.80;5.25;;;20.80;99.90;;;;;;1042579;28;20100;-67
2022/06/06 00:14:17;;;;;;;6.18;5.57;;;20.80;99.90;;;;;;1042751;28;20017;-71
2022/06/06 00:14:48;;;;;;;7.80;5.80;;;20.80;99.90;;;;;;1042510;28;20296;-68
2022/06/06 00:15:18;;;;;;;6.60;5.37;;;20.90;99.90;;;;;;1043225;28;20103;-68
2022/06/06 00:15:49;;;;;;;7.03;6.13;;;20.90;99.90;;;;;;1042788;28;20047;-67
2022/06/06 00:16:19;;;;;;;5.63;5.03;;;20.80;99.90;;;;;;1043350;28;20017;-67
2022/06/06 00:16:50;;;;;;;6.00;5.40;;;20.80;99.90;;;;;;1042790;28;20028;-68
2022/06/06 00:17:21;;;;;;;6.93;5.57;;;20.80;99.90;;;;;;1042936;28;20036;-70
2022/06/06 00:17:52;;;;;;;6.30;5.50;;;20.80;99.90;;;;;;1042242;28;20013;-68
2022/06/06 00:18:23;;;;;;;5.97;5.17;;;20.90;99.90;;;;;;1043065;28;20482;-68
2022/06/06 00:18:54;;;;;;;6.13;5.05;;;20.80;99.90;;;;;;1042628;28;20016;-68
2022/06/06 00:19:24;;;;;;;5.30;4.67;;;20.80;99.90;;;;;;1042781;28;20067;-67
2022/06/06 00:19:55;;;;;;;5.33;4.80;;;20.80;99.90;;;;;;1043180;28;20630;-68
2022/06/06 00:20:27;;;;;;;5.63;5.10;;;20.90;99.90;;;;;;1043248;28;20028;-67
2022/06/06 00:20:58;;;;;;;5.85;5.22;;;20.80;99.90;;;;;;1042301;28;20476;-68
2022/06/06 00:21:28;;;;;;;5.57;5.07;;;20.80;99.90;;;;;;1042749;28;20475;-68
2022/06/06 00:21:59;;;;;;;6.13;5.43;;;20.80;99.90;;;;;;1042632;28;20021;-69
2022/06/06 00:22:29;;;;;;;6.23;5.07;;;20.80;99.90;;;;;;1042702;28;20021;-68
2022/06/06 00:23:00;;;;;;;6.10;5.50;;;20.90;99.90;;;;;;1042975;28;20198;-68
2022/06/06 00:23:30;;;;;;;5.50;4.90;;;20.90;99.90;;;;;;1039294;28;20028;-68
2022/06/06 00:24:03;;;;;;;7.13;6.00;;;20.90;99.90;;;;;;1038655;28;20087;-68
2022/06/06 00:24:34;;;;;;;6.35;5.75;;;20.90;99.90;;;;;;1041098;28;20014;-68
2022/06/06 00:25:05;;;;;;;7.27;6.20;;;20.90;99.90;;;;;;1042485;28;20100;-67
2022/06/06 00:25:35;;;;;;;7.05;6.05;;;20.90;99.90;;;;;;1042700;28;20267;-68
2022/06/06 00:26:12;;;;;;;6.20;5.60;;;20.90;99.90;;;;;;1042386;28;20029;-68
2022/06/06 00:26:43;;;;;;;5.82;5.22;;;20.90;99.90;;;;;;1040874;28;20028;-68
2022/06/06 00:27:14;;;;;;;5.90;5.32;;;20.90;99.90;;;;;;1038341;28;20013;-68
2022/06/06 00:27:44;;;;;;;7.43;6.13;;;20.90;99.90;;;;;;1039149;28;20029;-67
2022/06/06 00:28:15;;;;;;;7.00;6.17;;;20.80;99.90;;;;;;1038790;28;20032;-67
2022/06/06 00:28:49;;;;;;;7.90;7.10;;;20.80;99.90;;;;;;1039195;28;20491;-68
2022/06/06 00:29:21;;;;;;;6.78;6.07;;;20.90;99.90;;;;;;1039615;28;20012;-67
2022/06/06 00:29:53;;;;;;;6.25;5.60;;;20.80;99.90;;;;;;1039071;28;20010;-68
2022/06/06 00:30:24;;;;;;;6.93;6.22;;;20.80;99.90;;;;;;1038719;28;20021;-68
2022/06/06 00:30:57;;;;;;;6.83;6.23;;;20.80;99.90;;;;;;1039204;28;20473;-68
2022/06/06 00:34:49;;;;;;;6.43;5.63;;;20.80;99.90;;;;;;1040847;28;20060;-68
2022/06/06 00:35:23;;;;;;;7.10;6.20;;;20.80;99.90;;;;;;1043357;28;20009;-68
2022/06/06 00:35:59;;;;;;;7.18;6.00;;;20.80;99.90;;;;;;1041862;28;20736;-68
2022/06/06 00:36:33;;;;;;;7.57;6.75;;;20.80;99.90;;;;;;1042358;28;20096;-67
2022/06/06 00:37:07;;;;;;;7.50;6.70;;;20.80;99.90;;;;;;1042750;28;20054;-68
2022/06/06 00:37:39;;;;;;;6.28;5.68;;;20.80;99.90;;;;;;1038414;28;20097;-68
2022/06/06 00:38:09;;;;;;;6.57;5.65;;;20.80;99.90;;;;;;1038855;28;20010;-69
2022/06/06 00:38:40;;;;;;;6.53;5.83;;;20.80;99.90;;;;;;1041336;28;20080;-67
2022/06/06 00:39:15;;;;;;;6.25;5.65;;;20.80;99.90;;;;;;1042961;28;20162;-68
2022/06/06 00:39:45;;;;;;;6.70;6.00;;;20.80;99.90;;;;;;1042655;28;20048;-67
2022/06/06 00:40:19;;;;;;;6.17;5.67;;;20.80;99.90;;;;;;1043269;28;20013;-68
2022/06/06 00:40:50;;;;;;;7.43;6.72;;;20.80;99.90;;;;;;1042695;28;20513;-67
2022/06/06 00:41:21;;;;;;;7.03;5.97;;;20.80;99.90;;;;;;1043173;28;20017;-68
2022/06/06 00:41:54;;;;;;;6.97;5.53;;;20.80;99.90;;;;;;1043010;28;20017;-68
2022/06/06 00:42:36;;;;;;;6.78;6.07;;;20.80;99.90;;;;;;1042973;28;20159;-68
2022/06/06 00:43:09;;;;;;;6.47;5.85;;;20.80;99.90;;;;;;1039507;28;20010;-68
2022/06/06 00:43:41;;;;;;;6.82;6.05;;;20.70;99.90;;;;;;1039170;28;20090;-68
2022/06/06 00:44:23;;;;;;;7.22;6.20;;;20.80;99.90;;;;;;1040676;28;20853;-68
2022/06/06 00:45:21;;;;;;;7.30;6.57;;;20.80;99.90;;;;;;1042679;28;20511;-67
2022/06/06 00:45:56;;;;;;;6.75;5.85;;;20.80;99.90;;;;;;1040772;28;20017;-69
2022/06/06 00:46:28;;;;;;;6.22;5.55;;;20.80;99.90;;;;;;1038751;28;20048;-68
2022/06/06 00:47:26;;;;;;;6.55;5.80;;;20.70;99.90;;;;;;1038579;28;20022;-68
2022/06/06 00:48:14;;;;;;;6.43;5.82;;;20.70;99.90;;;;;;1038910;28;20446;-68
2022/06/06 00:48:44;;;;;;;7.68;6.88;;;20.80;99.90;;;;;;1038783;28;20022;-66
2022/06/06 00:49:22;;;;;;;6.27;5.67;;;20.80;99.90;;;;;;1040740;28;20022;-68
2022/06/06 00:50:10;;;;;;;8.43;6.38;;;20.70;99.90;;;;;;1043126;28;20021;-67
2022/06/06 00:50:56;;;;;;;6.85;6.15;;;20.70;99.90;;;;;;1042970;28;20108;-67
2022/06/06 00:51:27;;;;;;;6.57;5.85;;;20.70;99.90;;;;;;1038728;28;20024;-67
2022/06/06 00:51:58;;;;;;;6.60;5.97;;;20.70;99.90;;;;;;1039178;28;20021;-67
2022/06/06 00:52:37;;;;;;;6.82;6.22;;;20.70;99.90;;;;;;1040348;28;20676;-67
2022/06/06 00:53:10;;;;;;;6.20;5.60;;;20.70;99.90;;;;;;1040803;28;20427;-68
2022/06/06 00:53:53;;;;;;;6.05;5.40;;;20.70;99.90;;;;;;1038291;28;20029;-68
2022/06/06 00:54:24;;;;;;;6.50;5.90;;;20.70;99.90;;;;;;1040799;28;20032;-66
2022/06/06 00:54:58;;;;;;;7.38;6.68;;;20.70;99.90;;;;;;1038699;28;20599;-69
2022/06/06 00:55:33;;;;;;;8.30;7.40;;;20.70;99.90;;;;;;1040812;28;20013;-67
2022/06/06 00:56:23;;;;;;;7.28;6.03;;;20.70;99.90;;;;;;1042806;28;20108;-67
2022/06/06 00:57:02;;;;;;;7.07;6.38;;;20.70;99.90;;;;;;1042547;28;20031;-68
2022/06/06 00:57:35;;;;;;;7.82;6.03;;;20.70;99.90;;;;;;1042488;28;20023;-68
2022/06/06 00:58:16;;;;;;;8.32;7.43;;;20.70;99.90;;;;;;1042601;28;20373;-68
2022/06/06 00:58:50;;;;;;;7.43;6.63;;;20.70;99.90;;;;;;1042207;28;20025;-68
2022/06/06 00:59:25;;;;;;;8.15;7.25;;;20.70;99.90;;;;;;1040877;28;20029;-68
2022/06/06 00:59:59;;;;;;;6.60;6.00;;;20.70;99.90;;;;;;1043258;28;20025;-67
2022/06/06 01:00:30;;;;;;;7.53;5.50;;;20.70;99.90;;;;;;1043390;28;20028;-67
2022/06/06 01:01:01;;;;;;;6.70;6.03;;;20.70;99.90;;;;;;1043482;28;20020;-68
2022/06/06 01:01:35;;;;;;;6.47;5.47;;;20.80;99.90;;;;;;1043965;28;20028;-67
2022/06/06 01:02:10;;;;;;;7.15;6.25;;;20.80;99.90;;;;;;1043762;28;20021;-67
2022/06/06 01:02:43;;;;;;;7.05;6.43;;;20.80;99.90;;;;;;1043742;28;20025;-68
2022/06/06 01:03:17;;;;;;;5.97;5.40;;;20.70;99.90;;;;;;1039557;28;20021;-67
2022/06/06 01:03:48;;;;;;;7.50;6.30;;;20.70;99.90;;;;;;1039598;28;20514;-68
2022/06/06 01:04:24;;;;;;;7.70;6.90;;;20.80;99.90;;;;;;1039043;28;20049;-68
2022/06/06 01:04:55;;;;;;;6.80;6.10;;;20.80;99.90;;;;;;1035305;28;20026;-67
2022/06/06 01:05:27;;;;;;;8.07;7.28;;;20.70;99.90;;;;;;1036020;28;20123;-68
2022/06/06 01:05:59;;;;;;;7.43;6.40;;;20.70;99.90;;;;;;1039583;28;20022;-68
2022/06/06 01:06:33;;;;;;;7.20;6.45;;;20.80;99.90;;;;;;1039096;28;20018;-67
2022/06/06 01:07:09;;;;;;;7.38;6.68;;;20.80;99.90;;;;;;1043561;28;20028;-67
2022/06/06 01:07:39;;;;;;;6.53;5.70;;;20.80;99.90;;;;;;1043634;28;20440;-69
2022/06/06 01:08:11;;;;;;;7.63;6.53;;;20.80;99.90;;;;;;1043271;28;20658;-68
2022/06/06 01:08:44;;;;;;;7.65;6.78;;;20.80;99.90;;;;;;1039843;28;20025;-68
2022/06/06 01:09:18;;;;;;;7.82;7.03;;;20.70;99.90;;;;;;1039560;28;20017;-68
2022/06/06 01:09:49;;;;;;;6.78;6.05;;;20.70;99.90;;;;;;1042523;28;20014;-68
2022/06/06 01:10:21;;;;;;;6.80;6.17;;;20.70;99.90;;;;;;1043558;28;20013;-67
2022/06/06 01:10:52;;;;;;;7.75;7.05;;;20.70;99.90;;;;;;1043530;28;20525;-68
2022/06/06 01:11:22;;;;;;;7.27;6.63;;;20.70;99.90;;;;;;1043193;28;20512;-67
2022/06/06 01:12:04;;;;;;;7.47;6.77;;;20.70;99.90;;;;;;1043626;28;20040;-68
2022/06/06 01:12:37;;;;;;;7.15;6.45;;;20.70;99.90;;;;;;1043290;28;20016;-68
2022/06/06 01:13:09;;;;;;;7.25;6.55;;;20.70;99.90;;;;;;1043703;28;20531;-68
2022/06/06 01:13:43;;;;;;;7.82;6.70;;;20.70;99.90;;;;;;1043644;28;20020;-68
2022/06/06 01:14:18;;;;;;;8.50;6.93;;;20.70;99.90;;;;;;1043946;28;20024;-68
2022/06/06 01:14:55;;;;;;;7.53;6.82;;;20.70;99.90;;;;;;1042911;28;20013;-68
2022/06/06 01:15:35;;;;;;;6.68;6.07;;;20.70;99.90;;;;;;1043607;28;20021;-68
2022/06/06 01:16:37;;;;;;;7.55;6.70;;;20.70;99.90;;;;;;1043489;28;20009;-68
2022/06/06 01:17:18;;;;;;;6.60;5.93;;;20.70;99.90;;;;;;1039720;28;20031;-69
2022/06/06 01:18:37;;;;;;;8.38;6.70;;;20.70;99.90;;;;;;1039388;28;20018;-68
2022/06/06 01:19:36;;;;;;;7.20;6.50;;;20.70;99.90;;;;;;1037746;28;20030;-68
2022/06/06 01:20:48;;;;;;;7.93;6.75;;;20.70;99.90;;;;;;1043070;28;20025;-68
2022/06/06 01:21:50;;;;;;;7.50;6.68;;;20.70;99.90;;;;;;1039860;28;20025;-67
2022/06/06 01:22:53;;;;;;;6.88;6.18;;;20.70;99.90;;;;;;1039818;28;20079;-67
2022/06/06 01:24:08;;;;;;;7.43;6.72;;;20.60;99.90;;;;;;1042289;28;20075;-67
2022/06/06 01:24:47;;;;;;;7.60;6.60;;;20.70;99.90;;;;;;1038424;28;20041;-67
2022/06/06 01:25:47;;;;;;;;;;;20.70;99.90;;;;;;1040029;28;20073;-68
2022/06/06 01:26:44;;;;;;;8.70;7.72;;;20.70;99.90;;;;;;1039456;28;19905;-69
2022/06/06 01:27:25;;;;;;;9.30;7.45;;;20.60;99.90;;;;;;1039525;28;20028;-67
2022/06/06 01:28:01;;;;;;;7.32;6.63;;;20.60;99.90;;;;;;1040068;28;20031;-69
2022/06/06 01:28:56;;;;;;;8.38;7.57;;;20.60;99.90;;;;;;1042033;28;20021;-67
2022/06/06 01:29:34;;;;;;;8.55;6.70;;;20.60;99.90;;;;;;1042888;28;20108;-67
2022/06/06 01:30:14;;;;;;;8.65;7.65;;;20.60;99.90;;;;;;1043372;28;20250;-67
2022/06/06 01:30:51;;;;;;;6.82;5.75;;;20.60;99.90;;;;;;1043308;28;20109;-66
2022/06/06 01:31:36;;;;;;;6.32;5.72;;;20.60;99.90;;;;;;1043038;28;20032;-67
2022/06/06 01:32:14;;;;;;;7.38;6.68;;;20.60;99.90;;;;;;1043648;28;20427;-67
2022/06/06 01:32:51;;;;;;;7.22;6.53;;;20.60;99.90;;;;;;1043220;28;20068;-69
2022/06/06 01:33:22;;;;;;;6.72;6.07;;;20.60;99.90;;;;;;1043450;28;20025;-68
2022/06/06 01:33:56;;;;;;;6.77;6.07;;;20.60;99.90;;;;;;1043439;28;20452;-69
2022/06/06 01:34:34;;;;;;;6.53;5.93;;;20.60;99.90;;;;;;1043112;28;20013;-67
2022/06/06 01:35:05;;;;;;;;;;;20.60;99.90;;;;;;1043996;28;20033;-67
2022/06/06 01:35:41;;;;;;;6.60;5.50;;;20.60;99.90;;;;;;1040557;28;20030;-67
2022/06/06 01:36:11;;;;;;;8.38;6.40;;;20.60;99.90;;;;;;1043239;28;20021;-68
2022/06/06 01:36:42;;;;;;;6.57;5.97;;;20.60;99.90;;;;;;1042994;28;20049;-67
2022/06/06 01:37:42;;;;;;;6.87;6.00;;;20.60;99.90;;;;;;1040278;28;20035;-67
2022/06/06 01:38:15;;;;;;;7.70;5.78;;;20.60;99.90;;;;;;1030643;28;20034;-69
2022/06/06 01:38:47;;;;;;;6.45;5.75;;;20.60;99.90;;;;;;1036775;28;20018;-68
2022/06/06 01:39:20;;;;;;;6.40;5.80;;;20.60;99.90;;;;;;1035216;28;20022;-67
2022/06/06 01:39:52;;;;;;;7.05;6.35;;;20.60;99.90;;;;;;1034917;28;20109;-68
2022/06/06 01:40:28;;;;;;;6.50;5.90;;;20.60;99.90;;;;;;1032416;28;20030;-67
2022/06/06 01:41:10;;;;;;;7.88;6.82;;;20.70;99.90;;;;;;1036598;28;20034;-68
2022/06/06 01:41:51;;;;;;;6.10;5.50;;;20.70;99.90;;;;;;1039444;28;20054;-67
2022/06/06 01:42:25;;;;;;;7.45;6.75;;;20.70;99.90;;;;;;1043348;28;20528;-68
2022/06/06 01:43:02;;;;;;;6.00;5.40;;;20.60;99.90;;;;;;1041694;28;20488;-68
2022/06/06 01:43:42;;;;;;;7.10;6.40;;;20.70;99.90;;;;;;1039561;28;20083;-68
2022/06/06 01:44:27;;;;;;;6.70;6.10;;;20.70;99.90;;;;;;1042613;28;20064;-68
2022/06/06 01:45:06;;;;;;;6.50;5.80;;;20.60;99.90;;;;;;1043516;28;20029;-68
2022/06/06 01:45:45;;;;;;;6.25;5.65;;;20.70;99.90;;;;;;1043685;28;20017;-69
2022/06/06 01:46:26;;;;;;;7.70;6.60;;;20.60;99.90;;;;;;1043596;28;20029;-70
2022/06/06 01:46:59;;;;;;;7.25;6.55;;;20.70;99.90;;;;;;1043486;28;20021;-72
2022/06/06 01:47:36;;;;;;;7.30;6.60;;;20.70;99.90;;;;;;1043053;28;20111;-67
2022/06/06 01:48:10;;;;;;;7.05;6.35;;;20.70;99.90;;;;;;1043162;28;20028;-67
2022/06/06 01:48:43;;;;;;;7.40;6.60;;;20.70;99.90;;;;;;1043728;28;20461;-67
2022/06/06 01:49:15;;;;;;;8.27;6.88;;;20.60;99.90;;;;;;1038737;28;20103;-67
2022/06/06 01:49:47;;;;;;;7.88;6.50;;;20.60;99.90;;;;;;1039316;28;20163;-67
2022/06/06 01:50:20;;;;;;;7.10;6.38;;;20.60;99.90;;;;;;1034800;28;20096;-67
2022/06/06 01:50:51;;;;;;;6.88;6.18;;;20.60;99.90;;;;;;1038532;28;20124;-67
2022/06/06 01:51:27;;;;;;;8.03;6.33;;;20.60;99.90;;;;;;1034932;28;20015;-67
2022/06/06 01:52:12;;;;;;;7.85;7.10;;;20.60;99.90;;;;;;1032382;28;20058;-67
2022/06/06 01:52:56;;;;;;;8.43;7.05;;;20.60;99.90;;;;;;1038940;28;20031;-68
2022/06/06 01:53:27;;;;;;;7.57;6.88;;;20.60;99.90;;;;;;1042982;28;20036;-67
2022/06/06 01:53:58;;;;;;;7.63;6.40;;;20.60;99.90;;;;;;1043205;28;20376;-67
2022/06/06 01:54:29;;;;;;;7.05;6.35;;;20.60;99.90;;;;;;1041121;28;20021;-67
2022/06/06 01:54:59;;;;;;;7.60;6.80;;;20.60;99.90;;;;;;1039445;28;20033;-67
2022/06/06 01:55:32;;;;;;;6.53;5.93;;;20.60;99.90;;;;;;1038842;28;20018;-67
2022/06/06 01:56:04;;;;;;;7.57;5.90;;;20.60;99.90;;;;;;1039850;28;20021;-67
2022/06/06 01:56:40;;;;;;;6.82;6.18;;;20.60;99.90;;;;;;1039435;28;20021;-67
2022/06/06 01:57:14;;;;;;;7.97;6.93;;;20.60;99.90;;;;;;1039615;28;20020;-67
2022/06/06 01:57:47;;;;;;;8.00;7.25;;;20.60;99.90;;;;;;1039492;28;20029;-67
2022/06/06 01:58:21;;;;;;;8.20;7.07;;;20.60;99.90;;;;;;1041188;28;20036;-70
2022/06/06 01:58:53;;;;;;;7.90;6.50;;;20.50;99.90;;;;;;1043355;28;20363;-68
2022/06/06 01:59:24;;;;;;;8.32;7.40;;;20.60;99.90;;;;;;1039333;28;20517;-66
2022/06/06 01:59:54;;;;;;;8.33;7.37;;;20.50;99.90;;;;;;1039041;28;20553;-67
2022/06/06 02:00:26;;;;;;;9.10;8.20;;;20.60;99.90;;;;;;1035000;28;20104;-67
2022/06/06 02:00:57;;;;;;;7.07;6.38;;;20.50;99.90;;;;;;1037861;28;20140;-67
2022/06/06 02:01:30;;;;;;;7.72;6.90;;;20.50;99.90;;;;;;1043072;28;20087;-68
2022/06/06 02:02:02;;;;;;;7.28;6.57;;;20.50;99.90;;;;;;1042716;28;20021;-67
2022/06/06 02:02:32;;;;;;;7.65;6.95;;;20.50;99.90;;;;;;1040525;28;20029;-68
2022/06/06 02:03:03;;;;;;;7.37;6.67;;;20.50;99.90;;;;;;1043133;28;20016;-67
2022/06/06 02:03:34;;;;;;;7.03;6.43;;;20.50;99.90;;;;;;1043361;28;20021;-68
2022/06/06 02:04:04;;;;;;;7.40;6.70;;;20.50;99.90;;;;;;1042910;28;20534;-67
2022/06/06 02:04:35;;;;;;;8.00;7.17;;;20.50;99.90;;;;;;1043711;28;20106;-67
2022/06/06 02:05:06;;;;;;;7.60;6.90;;;20.50;99.90;;;;;;1043481;28;20071;-67
2022/06/06 02:05:39;;;;;;;8.30;7.43;;;20.50;99.90;;;;;;1043756;28;20017;-67
2022/06/06 02:06:10;;;;;;;7.72;6.93;;;20.50;99.90;;;;;;1042668;28;20256;-67
2022/06/06 02:06:41;;;;;;;7.77;6.97;;;20.50;99.90;;;;;;1043350;28;20025;-67
2022/06/06 02:07:12;;;;;;;7.80;7.00;;;20.50;99.90;;;;;;1038759;28;20512;-67
2022/06/06 02:07:43;;;;;;;9.20;7.53;;;20.50;99.90;;;;;;1036862;28;20053;-67
2022/06/06 02:08:15;;;;;;;7.03;6.32;;;20.50;99.90;;;;;;1034838;28;20029;-67
2022/06/06 02:08:47;;;;;;;7.47;6.65;;;20.50;99.90;;;;;;1035541;28;20018;-67
2022/06/06 02:09:18;;;;;;;7.80;6.97;;;20.50;99.90;;;;;;1040192;28;20083;-67
2022/06/06 02:09:48;;;;;;;7.22;6.53;;;20.50;99.90;;;;;;1043699;28;20506;-67
2022/06/06 02:10:20;;;;;;;8.10;7.30;;;20.50;99.90;;;;;;1042883;28;20530;-68
2022/06/06 02:10:51;;;;;;;7.55;6.75;;;20.50;99.90;;;;;;1043654;28;20013;-67
2022/06/06 02:11:22;;;;;;;6.83;6.20;;;20.50;99.90;;;;;;1043329;28;20084;-67
2022/06/06 02:11:52;;;;;;;7.10;6.40;;;20.50;99.90;;;;;;1043711;28;20013;-67
2022/06/06 02:12:23;;;;;;;6.43;5.80;;;20.50;99.90;;;;;;1043294;28;20012;-67
2022/06/06 02:12:54;;;;;;;7.33;6.10;;;20.50;99.90;;;;;;1043680;28;20013;-66
2022/06/06 02:13:25;;;;;;;6.40;5.80;;;20.50;99.90;;;;;;1043368;28;20023;-67
2022/06/06 02:13:56;;;;;;;6.75;6.10;;;20.50;99.90;;;;;;1043912;28;20548;-67
2022/06/06 02:14:27;;;;;;;8.67;7.00;;;20.50;99.90;;;;;;1043269;28;20599;-66
2022/06/06 02:14:57;;;;;;;8.10;7.30;;;20.50;99.90;;;;;;1043873;28;20017;-69
2022/06/06 02:15:28;;;;;;;7.83;6.90;;;20.50;99.90;;;;;;1043362;28;20305;-66
2022/06/06 02:16:00;;;;;;;8.32;7.22;;;20.50;99.90;;;;;;1043886;28;20024;-68
2022/06/06 02:16:31;;;;;;;9.05;7.60;;;20.50;99.90;;;;;;1042912;28;20032;-66
2022/06/06 02:17:02;;;;;;;8.13;7.33;;;20.50;99.90;;;;;;1043819;28;20020;-68
2022/06/06 02:17:32;;;;;;;8.43;7.63;;;20.50;99.90;;;;;;1042931;28;20111;-68
2022/06/06 02:18:03;;;;;;;7.57;6.43;;;20.50;99.90;;;;;;1043278;28;20013;-68
2022/06/06 02:18:34;;;;;;;6.93;6.22;;;20.50;99.90;;;;;;1042784;28;20013;-68
2022/06/06 02:19:06;;;;;;;8.73;7.20;;;20.50;99.90;;;;;;1043452;28;20103;-68
2022/06/06 02:19:37;;;;;;;7.93;7.13;;;20.50;99.90;;;;;;1042663;28;20523;-67
2022/06/06 02:20:11;;;;;;;7.95;7.15;;;20.50;99.90;;;;;;1043287;28;20039;-68
2022/06/06 02:20:42;;;;;;;7.32;6.63;;;20.50;99.90;;;;;;1042703;28;20059;-66
2022/06/06 02:21:16;;;;;;;7.60;6.90;;;20.50;99.90;;;;;;1042592;28;20033;-68
2022/06/06 02:21:47;;;;;;;6.78;6.10;;;20.50;99.90;;;;;;1042841;28;20451;-66
2022/06/06 02:22:18;;;;;;;8.20;6.60;;;20.50;99.90;;;;;;1042416;28;20375;-66
2022/06/06 02:22:48;;;;;;;7.17;6.47;;;20.50;99.90;;;;;;1038708;28;20025;-67
2022/06/06 02:23:19;;;;;;;7.37;6.67;;;20.50;99.90;;;;;;1039439;28;20138;-67
2022/06/06 02:23:49;;;;;;;6.87;6.17;;;20.50;99.90;;;;;;1042855;28;20025;-66
2022/06/06 02:24:20;;;;;;;7.03;5.90;;;20.50;99.90;;;;;;1043404;28;20024;-68
2022/06/06 02:24:50;;;;;;;7.90;7.00;;;20.50;99.90;;;;;;1043295;28;20388;-66
2022/06/06 02:25:22;;;;;;;8.47;7.40;;;20.50;99.90;;;;;;1039204;28;20036;-67
2022/06/06 02:25:54;;;;;;;7.18;6.47;;;20.50;99.90;;;;;;1039017;28;20029;-67
2022/06/06 02:26:25;;;;;;;7.63;6.65;;;20.50;99.90;;;;;;1041183;28;20031;-67
2022/06/06 02:26:56;;;;;;;7.70;7.00;;;20.50;99.90;;;;;;1043401;28;20082;-66
2022/06/06 02:27:27;;;;;;;6.77;6.13;;;20.50;99.90;;;;;;1043637;28;20021;-67
2022/06/06 02:27:58;;;;;;;6.67;6.07;;;20.50;99.90;;;;;;1043669;28;20356;-67
2022/06/06 02:28:28;;;;;;;8.50;7.70;;;20.50;99.90;;;;;;1043483;28;20094;-67
2022/06/06 02:29:00;;;;;;;6.83;6.23;;;20.50;99.90;;;;;;1043312;28;20179;-67
2022/06/06 02:29:31;;;;;;;8.18;7.32;;;20.40;99.90;;;;;;1042822;28;20036;-66
2022/06/06 02:30:05;;;;;;;6.90;5.97;;;20.50;99.90;;;;;;1043315;28;20017;-67
2022/06/06 02:30:37;;;;;;;8.10;7.30;;;20.40;99.90;;;;;;1043058;28;20009;-67
2022/06/06 02:31:08;;;;;;;9.73;8.25;;;20.50;99.90;;;;;;1039630;28;20021;-67
2022/06/06 02:31:39;;;;;;;7.30;6.43;;;20.40;99.90;;;;;;1043092;28;20057;-67
2022/06/06 02:32:11;;;;;;;7.67;6.43;;;20.50;99.90;;;;;;1043095;28;20055;-67
2022/06/06 02:32:42;;;;;;;11.43;7.85;;;20.40;99.90;;;;;;1043237;28;20132;-67
2022/06/06 02:33:13;;;;;;;6.68;6.00;;;20.50;99.90;;;;;;1043189;28;20044;-67
2022/06/06 02:33:44;;;;;;;6.00;5.50;;;20.50;99.90;;;;;;1043659;28;20075;-67
2022/06/06 02:34:15;;;;;;;6.90;5.93;;;20.50;99.90;;;;;;1043275;28;20099;-67
2022/06/06 02:34:46;;;;;;;8.00;7.10;;;20.40;99.90;;;;;;1042844;28;20048;-67
2022/06/06 02:35:22;;;;;;;9.27;7.00;;;20.40;99.90;;;;;;1042976;28;20263;-67
2022/06/06 02:35:53;;;;;;;8.90;7.35;;;20.40;99.90;;;;;;1038982;28;20087;-67
2022/06/06 02:36:25;;;;;;;7.85;7.05;;;20.40;99.90;;;;;;1039547;28;20018;-67
2022/06/06 02:36:56;;;;;;;7.13;6.35;;;20.40;99.90;;;;;;1042833;28;20024;-67
2022/06/06 02:37:27;;;;;;;6.53;5.93;;;20.40;99.90;;;;;;1039268;28;20028;-67
2022/06/06 02:37:57;;;;;;;7.17;5.83;;;20.40;99.90;;;;;;1039271;28;20463;-67
2022/06/06 02:38:32;;;;;;;9.40;8.37;;;20.40;99.90;;;;;;1038983;28;20125;-67
2022/06/06 02:39:03;;;;;;;8.68;7.35;;;20.40;99.90;;;;;;1039089;28;20496;-68
2022/06/06 02:39:34;;;;;;;8.00;7.22;;;20.40;99.90;;;;;;1038968;28;20017;-67
2022/06/06 02:40:07;;;;;;;7.97;6.87;;;20.40;99.90;;;;;;1039001;28;20018;-68
2022/06/06 02:40:38;;;;;;;8.40;7.50;;;20.40;99.90;;;;;;1042056;28;20111;-67
2022/06/06 02:41:09;;;;;;;8.35;6.72;;;20.40;99.90;;;;;;1043233;28;20013;-67
2022/06/06 02:41:39;;;;;;;7.60;6.47;;;20.40;99.90;;;;;;1043092;28;20025;-67
2022/06/06 02:42:10;;;;;;;8.73;7.77;;;20.30;99.90;;;;;;1043305;28;20555;-68
2022/06/06 02:42:42;;;;;;;8.48;7.65;;;20.30;99.90;;;;;;1043379;28;20025;-68
2022/06/06 02:43:14;;;;;;;8.40;7.50;;;20.30;99.90;;;;;;1039234;28;20369;-67
2022/06/06 02:43:45;;;;;;;8.77;7.85;;;20.30;99.90;;;;;;1040278;28;20013;-67
2022/06/06 02:44:15;;;;;;;7.33;6.63;;;20.30;99.90;;;;;;1043563;28;20017;-68
2022/06/06 02:44:46;;;;;;;8.70;7.67;;;20.30;99.90;;;;;;1043432;28;20029;-68
2022/06/06 02:45:17;;;;;;;7.43;6.73;;;20.30;99.90;;;;;;1043231;28;20395;-68
2022/06/06 02:45:50;;;;;;;7.90;7.18;;;20.30;99.90;;;;;;1043394;28;20132;-68
2022/06/06 02:46:20;;;;;;;10.20;7.38;;;20.30;99.90;;;;;;1043260;28;20018;-68
2022/06/06 02:46:51;;;;;;;10.80;8.53;;;20.30;99.90;;;;;;1043542;28;20013;-67
2022/06/06 02:47:22;;;;;;;7.57;6.50;;;20.30;99.90;;;;;;1043194;28;20424;-68
2022/06/06 02:47:55;;;;;;;8.50;7.60;;;20.30;99.90;;;;;;1043692;28;20025;-67
2022/06/06 02:48:26;;;;;;;7.72;6.75;;;20.30;99.90;;;;;;1043217;28;20043;-68
2022/06/06 02:48:58;;;;;;;7.07;6.40;;;20.30;99.90;;;;;;1043470;28;20143;-67
2022/06/06 02:49:30;;;;;;;7.10;6.32;;;20.30;99.90;;;;;;1043153;28;20392;-68
2022/06/06 02:50:01;;;;;;;9.52;7.88;;;20.30;99.90;;;;;;1043737;28;20092;-68
2022/06/06 02:50:32;;;;;;;8.73;6.63;;;20.30;99.90;;;;;;1043085;28;20013;-68
2022/06/06 02:51:03;;;;;;;7.28;6.55;;;20.30;99.90;;;;;;1043583;28;20020;-68
2022/06/06 02:51:34;;;;;;;7.97;7.18;;;20.30;99.90;;;;;;1043273;28;20032;-68
2022/06/06 02:52:05;;;;;;;8.23;6.83;;;20.30;99.90;;;;;;1043510;28;20482;-68
2022/06/06 02:52:37;;;;;;;6.75;5.88;;;20.30;99.90;;;;;;1039954;28;20012;-68
2022/06/06 02:53:09;;;;;;;7.45;6.65;;;20.30;99.90;;;;;;1039448;28;20025;-67
2022/06/06 02:53:40;;;;;;;7.65;6.85;;;20.30;99.90;;;;;;1039331;28;20018;-67
2022/06/06 02:54:10;;;;;;;6.93;5.90;;;20.30;99.90;;;;;;1042210;28;20337;-68
2022/06/06 02:54:41;;;;;;;7.60;6.20;;;20.30;99.90;;;;;;1039888;28;20120;-68
2022/06/06 02:55:13;;;;;;;8.63;6.60;;;20.30;99.90;;;;;;1039322;28;20068;-68
2022/06/06 02:55:44;;;;;;;9.15;7.30;;;20.40;99.90;;;;;;1040713;28;20014;-68
2022/06/06 02:56:15;;;;;;;7.20;5.90;;;20.40;99.90;;;;;;1043546;28;20018;-68
2022/06/06 02:56:45;;;;;;;6.57;5.97;;;20.40;99.90;;;;;;1043161;28;20255;-67
2022/06/06 02:57:16;;;;;;;6.67;5.83;;;20.40;99.90;;;;;;1043009;28;20021;-68
2022/06/06 02:57:49;;;;;;;7.60;6.53;;;20.40;99.90;;;;;;1042967;28;20028;-67
2022/06/06 02:58:21;;;;;;;8.25;7.38;;;20.40;99.90;;;;;;1043072;28;20150;-68
2022/06/06 02:58:54;;;;;;;7.07;6.35;;;20.40;99.90;;;;;;1038708;28;20696;-68
2022/06/06 02:59:28;;;;;;;7.30;6.38;;;20.40;99.90;;;;;;1038894;28;20036;-68
2022/06/06 03:00:00;;;;;;;7.32;6.63;;;20.40;99.90;;;;;;1038929;28;20014;-68
2022/06/06 03:00:33;;;;;;;7.05;6.32;;;20.40;99.90;;;;;;1038818;28;20068;-68
2022/06/06 03:01:07;;;;;;;7.30;6.22;;;20.40;99.90;;;;;;1042723;28;20009;-68
2022/06/06 03:01:38;;;;;;;7.75;6.75;;;20.40;99.90;;;;;;1043346;28;20090;-69